Time;durP1;ratioP1;P1;durP2;ratioP2;P2;SDS_P1;SDS_P2;PMS_P1;PMS_P2;Temp;Humidity;BMP_temperature;BMP_pressure;BME280_temperature;BME280_humidity;BME280_pressure;Samples;Min_cycle;Max_cycle;Signal;HPM_P1;HPM_P2
2023/07/10 00:01:44;;;;;;;3.55;3.17;;;;;;;17.15;71.76;96763.63;5075098;28;20089;-66
2023/07/10 00:04:16;;;;;;;4.88;3.35;;;;;;;17.16;71.57;96760.00;5075471;28;20067;-65
2023/07/10 00:06:43;;;;;;;9.98;3.65;;;;;;;17.17;71.91;96753.81;5075501;28;20055;-66
2023/07/10 00:09:10;;;;;;;3.72;3.00;;;;;;;17.13;71.94;96754.09;5075567;28;20048;-65
2023/07/10 00:11:38;;;;;;;5.10;3.28;;;;;;;17.10;72.22;96760.38;5075551;28;20556;-65
2023/07/10 00:14:13;;;;;;;3.88;3.05;;;;;;;17.06;72.43;96764.13;5075414;28;20044;-66
2023/07/10 00:16:40;;;;;;;6.18;3.53;;;;;;;17.10;72.28;96759.56;5075299;28;20049;-65
2023/07/10 00:19:13;;;;;;;7.03;3.55;;;;;;;17.11;72.27;96759.47;5075337;28;20057;-65
2023/07/10 00:21:40;;;;;;;6.78;3.53;;;;;;;17.11;72.61;96756.81;5075306;28;20066;-65
2023/07/10 00:24:08;;;;;;;9.15;2.97;;;;;;;17.10;72.37;96760.38;5075043;28;20070;-65
2023/07/10 00:26:37;;;;;;;5.00;3.40;;;;;;;17.08;72.36;96757.00;5075079;28;20052;-66
2023/07/10 00:29:15;;;;;;;5.35;3.22;;;;;;;17.07;72.28;96759.75;5075146;28;20487;-65
2023/07/10 00:31:42;;;;;;;3.97;3.28;;;;;;;17.02;72.36;96757.34;5075127;28;20048;-66
2023/07/10 00:34:14;;;;;;;5.20;3.17;;;;;;;17.01;72.60;96753.84;5075100;28;20040;-65
2023/07/10 00:36:41;;;;;;;6.47;3.20;;;;;;;16.98;72.40;96750.56;5074941;28;20048;-65
2023/07/10 00:39:20;;;;;;;6.97;3.10;;;;;;;16.93;72.80;96756.13;5074929;28;20052;-66
2023/07/10 00:41:50;;;;;;;3.47;2.88;;;;;;;16.90;72.84;96753.66;5074968;28;20406;-65
2023/07/10 00:44:22;;;;;;;6.25;3.03;;;;;;;16.78;72.71;96749.97;5074747;28;20052;-65
2023/07/10 00:46:53;;;;;;;4.85;3.28;;;;;;;16.75;73.43;96758.91;5074591;28;20056;-65
2023/07/10 00:49:24;;;;;;;;;;;;;;;16.73;73.61;96750.22;5075134;28;20436;-65
2023/07/10 00:51:56;;;;;;;;;;;;;;;16.72;73.53;96747.69;5075222;28;19925;-65
2023/07/10 00:54:30;;;;;;;4.18;3.20;;;;;;;16.67;74.13;96747.94;5074709;28;19927;-65
2023/07/10 00:56:59;;;;;;;6.57;3.17;;;;;;;16.60;74.08;96747.47;5074568;28;20135;-65
2023/07/10 00:59:29;;;;;;;5.88;3.45;;;;;;;16.64;74.40;96750.78;5074661;28;20049;-65
2023/07/10 01:02:26;;;;;;;4.50;3.35;;;;;;;16.64;74.18;96749.00;5074551;28;20128;-66
2023/07/10 01:05:00;;;;;;;5.50;3.08;;;;;;;16.63;74.38;96742.03;5012724;28;20050;-66
2023/07/10 01:07:31;;;;;;;7.45;3.42;;;;;;;16.61;74.58;96746.53;5063087;28;20121;-66
2023/07/10 01:10:02;;;;;;;5.75;3.58;;;;;;;16.66;74.37;96743.63;5074430;28;20049;-65
2023/07/10 01:12:30;;;;;;;6.78;3.20;;;;;;;16.72;73.97;96748.53;5073285;28;20457;-66
2023/07/10 01:14:59;;;;;;;4.80;2.80;;;;;;;16.79;73.22;96746.38;5074195;28;20486;-65
2023/07/10 01:17:28;;;;;;;7.05;3.80;;;;;;;16.84;73.17;96746.94;5074259;28;20060;-66
2023/07/10 01:20:00;;;;;;;3.75;3.15;;;;;;;16.89;72.80;96749.31;5074180;28;20048;-65
2023/07/10 01:22:29;;;;;;;4.57;3.53;;;;;;;16.95;73.19;96754.25;5073978;28;20052;-66
2023/07/10 01:24:57;;;;;;;4.90;3.20;;;;;;;17.01;73.57;96753.84;5074047;28;20044;-66
2023/07/10 01:27:28;;;;;;;5.00;3.20;;;;;;;17.04;73.37;96760.75;5073895;28;20127;-65
2023/07/10 01:30:06;;;;;;;3.83;3.00;;;;;;;17.01;73.29;96759.13;5073981;28;20040;-65
2023/07/10 01:32:34;;;;;;;4.35;2.95;;;;;;;17.02;72.18;96755.56;5073808;28;20048;-65
2023/07/10 01:35:04;;;;;;;5.97;3.83;;;;;;;17.05;71.95;96749.22;5073747;28;20044;-65
2023/07/10 01:37:33;;;;;;;7.45;3.40;;;;;;;17.07;72.21;96757.97;5073769;28;20403;-66
2023/07/10 01:40:00;;;;;;;4.65;3.63;;;;;;;17.08;72.24;96749.06;5073779;28;20072;-65
2023/07/10 01:42:27;;;;;;;3.75;3.00;;;;;;;17.09;71.86;96753.41;5073829;28;20071;-65
2023/07/10 01:44:54;;;;;;;6.03;3.30;;;;;;;17.06;71.90;96748.28;5073603;28;20053;-65
2023/07/10 01:47:21;;;;;;;3.10;2.80;;;;;;;17.04;71.85;96755.47;5073350;28;20048;-65
2023/07/10 01:49:52;;;;;;;4.40;2.97;;;;;;;17.02;71.99;96755.56;5073615;28;20529;-65
2023/07/10 01:52:20;;;;;;;3.70;3.30;;;;;;;16.98;71.82;96743.47;5073551;28;20119;-66
2023/07/10 01:54:49;;;;;;;3.85;3.17;;;;;;;16.95;72.07;96756.03;5073448;28;20051;-65
2023/07/10 01:57:18;;;;;;;5.35;3.20;;;;;;;16.86;71.63;96755.63;5073396;28;20414;-66
2023/07/10 01:59:45;;;;;;;3.60;2.97;;;;;;;16.76;72.19;96747.41;5073536;28;20098;-65
2023/07/10 02:02:12;;;;;;;3.65;3.17;;;;;;;16.76;72.20;96744.78;5073417;28;20076;-66
2023/07/10 02:04:39;;;;;;;3.60;2.90;;;;;;;16.82;72.46;96750.63;5073229;28;20131;-65
2023/07/10 02:07:06;;;;;;;8.00;3.08;;;;;;;16.82;73.08;96748.81;5073298;28;20179;-65
2023/07/10 02:09:33;;;;;;;8.80;3.08;;;;;;;16.80;72.87;96754.19;5073347;28;20044;-65
2023/07/10 02:12:03;;;;;;;5.03;3.53;;;;;;;16.79;72.52;96754.28;5073339;28;20045;-65
2023/07/10 02:14:30;;;;;;;4.57;3.10;;;;;;;16.83;73.12;96749.69;5073370;28;20097;-65
2023/07/10 02:16:58;;;;;;;3.85;3.45;;;;;;;16.84;72.91;96749.59;5073146;28;20452;-65
2023/07/10 02:19:25;;;;;;;8.55;3.30;;;;;;;16.79;72.58;96746.38;5073149;28;20044;-65
2023/07/10 02:21:52;;;;;;;3.67;3.10;;;;;;;16.76;72.90;96757.13;5073091;28;20045;-66
2023/07/10 02:24:19;;;;;;;4.38;3.40;;;;;;;16.68;73.09;96747.84;5072783;28;20080;-65
2023/07/10 02:26:46;;;;;;;4.35;3.35;;;;;;;16.67;73.49;96747.94;5073056;28;20055;-65
2023/07/10 02:29:14;;;;;;;3.50;3.20;;;;;;;16.65;73.68;96740.13;5073058;28;20556;-65
2023/07/10 02:31:42;;;;;;;3.85;3.55;;;;;;;16.62;74.09;96752.66;5073044;28;20119;-66
2023/07/10 02:34:09;;;;;;;9.63;3.13;;;;;;;16.59;74.21;96764.28;5073050;28;20048;-66
2023/07/10 02:36:36;;;;;;;3.83;3.33;;;;;;;16.61;74.27;96754.44;5073062;28;20118;-65
2023/07/10 02:39:03;;;;;;;3.55;3.22;;;;;;;16.61;74.11;96756.22;5073052;28;20051;-65
2023/07/10 02:41:30;;;;;;;5.50;3.58;;;;;;;16.60;74.04;96758.03;5072861;28;20045;-66
2023/07/10 02:43:57;;;;;;;6.15;3.83;;;;;;;16.63;74.41;96765.78;5072844;28;20084;-65
2023/07/10 02:46:26;;;;;;;4.10;3.28;;;;;;;16.63;74.03;96767.56;5072743;28;20529;-66
2023/07/10 02:48:53;;;;;;;6.22;3.30;;;;;;;16.59;73.81;96766.91;5072840;28;20071;-65
2023/07/10 02:51:21;;;;;;;3.10;2.80;;;;;;;16.57;73.80;96774.06;5072871;28;20044;-65
2023/07/10 02:53:48;;;;;;;3.38;2.78;;;;;;;16.57;73.93;96767.91;5072814;28;20552;-66
2023/07/10 02:56:15;;;;;;;4.05;3.60;;;;;;;16.54;74.04;96775.09;5072870;28;20132;-66
2023/07/10 02:58:42;;;;;;;3.33;3.03;;;;;;;16.54;73.99;96777.75;5072747;28;20045;-65
2023/07/10 03:01:09;;;;;;;5.38;3.78;;;;;;;16.52;74.67;96778.75;5072678;28;20049;-66
2023/07/10 03:03:44;;;;;;;3.33;3.00;;;;;;;16.57;74.22;96776.69;5072725;28;20141;-65
2023/07/10 03:06:11;;;;;;;4.13;3.05;;;;;;;16.59;74.56;96780.13;5072708;28;20494;-65
2023/07/10 03:08:40;;;;;;;5.57;3.30;;;;;;;16.60;74.39;96776.53;5072805;28;20131;-66
2023/07/10 03:11:10;;;;;;;5.88;3.35;;;;;;;16.61;74.68;96778.22;5072727;28;20076;-65
2023/07/10 03:13:37;;;;;;;4.00;2.80;;;;;;;16.64;74.67;96779.81;5072665;28;20106;-65
2023/07/10 03:16:07;;;;;;;3.90;3.50;;;;;;;16.59;74.45;96781.91;5072554;28;20044;-67
2023/07/10 03:18:34;;;;;;;6.35;3.38;;;;;;;16.60;74.49;96783.59;5072572;28;20475;-66
2023/07/10 03:21:03;;;;;;;3.72;3.40;;;;;;;16.60;74.51;96784.44;5072551;28;20083;-66
2023/07/10 03:23:30;;;;;;;5.97;3.63;;;;;;;16.65;74.50;96784.19;5072439;28;20474;-66
2023/07/10 03:25:57;;;;;;;4.95;3.35;;;;;;;16.63;74.59;96779.00;5072479;28;20094;-66
2023/07/10 03:28:25;;;;;;;6.07;3.00;;;;;;;16.67;74.37;96779.63;5072470;28;20076;-66
2023/07/10 03:30:52;;;;;;;4.88;3.00;;;;;;;16.67;74.41;96783.13;5072418;28;20448;-66
2023/07/10 03:33:19;;;;;;;5.40;3.10;;;;;;;16.72;74.44;96788.16;5072380;28;20044;-66
2023/07/10 03:35:48;;;;;;;4.00;3.30;;;;;;;16.76;74.42;96783.53;5073059;28;20128;-66
2023/07/10 03:38:17;;;;;;;3.72;3.08;;;;;;;16.82;74.59;96791.09;5076040;28;20474;-66
2023/07/10 03:40:52;;;;;;;3.80;3.25;;;;;;;16.95;74.02;96790.38;5076032;28;20454;-66
2023/07/10 03:43:19;;;;;;;3.42;3.13;;;;;;;17.14;73.76;96798.94;5075828;28;20047;-66
2023/07/10 03:45:47;;;;;;;3.35;2.97;;;;;;;17.46;73.12;96795.22;5075873;28;20406;-66
2023/07/10 03:48:14;;;;;;;7.38;3.15;;;;;;;17.84;71.20;96793.78;5075751;28;20044;-66
2023/07/10 03:50:45;;;;;;;3.28;2.63;;;;;;;18.20;69.69;96794.19;5075987;28;20051;-66
2023/07/10 03:53:12;;;;;;;4.47;2.90;;;;;;;18.60;68.06;96793.34;5075783;28;20049;-66
2023/07/10 03:55:49;;;;;;;5.75;2.40;;;;;;;19.06;67.04;96799.97;5075750;28;20056;-66
2023/07/10 03:58:22;;;;;;;3.05;2.55;;;;;;;19.57;65.30;96803.59;5075713;28;20075;-66
2023/07/10 04:00:50;;;;;;;3.85;2.60;;;;;;;19.98;63.56;96814.00;5075663;28;20045;-66
2023/07/10 04:03:17;;;;;;;3.40;2.60;;;;;;;20.43;61.92;96817.91;5075604;28;20462;-66
2023/07/10 04:05:49;;;;;;;2.78;2.42;;;;;;;20.84;60.33;96821.94;5075489;28;20053;-66
2023/07/10 04:08:16;;;;;;;2.70;2.47;;;;;;;21.26;59.45;96825.09;5075802;28;20482;-66
2023/07/10 04:10:51;;;;;;;2.85;2.50;;;;;;;21.63;57.45;96824.88;5075477;28;20048;-66
2023/07/10 04:13:19;;;;;;;3.92;2.55;;;;;;;21.97;55.95;96818.69;5075394;28;20046;-66
2023/07/10 04:16:00;;;;;;;4.28;2.80;;;;;;;22.36;54.70;96828.09;5075445;28;20132;-66
2023/07/10 04:18:28;;;;;;;;;;;;;;;22.70;53.15;96831.50;5075797;28;20048;-66
2023/07/10 04:20:55;;;;;;;2.90;2.25;;;;;;;23.03;52.79;96835.97;5075410;28;20312;-66
2023/07/10 04:23:22;;;;;;;4.35;2.38;;;;;;;23.31;51.83;96833.59;5075212;28;20049;-66
2023/07/10 04:25:51;;;;;;;3.05;2.22;;;;;;;23.61;51.25;96826.63;5075125;28;20055;-66
2023/07/10 04:28:18;;;;;;;3.53;2.50;;;;;;;23.93;51.11;96822.09;5075188;28;20051;-66
2023/07/10 04:30:46;;;;;;;2.95;2.60;;;;;;;24.21;50.90;96830.38;5075264;28;20552;-67
2023/07/10 04:33:14;;;;;;;3.60;2.45;;;;;;;24.49;50.68;96835.88;5075078;28;20040;-66
2023/07/10 04:35:41;;;;;;;4.82;2.80;;;;;;;24.75;49.20;96830.00;5075052;28;20057;-67
2023/07/10 04:38:08;;;;;;;4.30;2.58;;;;;;;25.02;47.54;96833.81;5075019;28;20056;-66
2023/07/10 04:40:36;;;;;;;6.65;2.47;;;;;;;25.25;48.05;96828.13;5074947;28;20049;-67
2023/07/10 04:43:05;;;;;;;2.75;2.47;;;;;;;25.51;48.19;96824.81;5074962;28;20048;-66
2023/07/10 04:45:32;;;;;;;5.75;2.50;;;;;;;25.76;47.25;96827.03;5074844;28;20380;-67
2023/07/10 04:47:59;;;;;;;2.60;2.35;;;;;;;26.03;48.38;96828.03;5074413;28;20053;-67
2023/07/10 04:50:27;;;;;;;4.57;2.63;;;;;;;26.23;48.05;96828.75;5074920;28;20052;-67
2023/07/10 04:52:54;;;;;;;2.80;2.40;;;;;;;26.38;47.54;96823.75;5074656;28;20098;-66
2023/07/10 04:55:21;;;;;;;2.67;2.47;;;;;;;26.64;47.47;96830.19;5074671;28;20491;-67
2023/07/10 04:57:48;;;;;;;4.47;2.72;;;;;;;26.91;47.57;96828.44;5074643;28;20048;-67
2023/07/10 05:00:19;;;;;;;2.58;2.38;;;;;;;27.18;46.67;96827.47;5074603;28;20497;-67
2023/07/10 05:02:46;;;;;;;5.15;2.30;;;;;;;27.44;45.80;96823.97;5074502;28;20048;-66
2023/07/10 05:05:13;;;;;;;3.75;2.72;;;;;;;27.74;46.23;96826.34;5074365;28;20061;-65
2023/07/10 05:07:40;;;;;;;8.70;2.97;;;;;;;27.97;44.79;96823.94;5074367;28;20044;-65
2023/07/10 05:10:08;;;;;;;4.28;2.65;;;;;;;28.16;44.23;96824.66;5074343;28;20052;-65
2023/07/10 05:12:35;;;;;;;5.25;2.85;;;;;;;28.37;42.04;96831.47;5074242;28;20049;-66
2023/07/10 05:15:02;;;;;;;4.15;2.20;;;;;;;28.62;42.46;96837.72;5074201;28;20044;-66
2023/07/10 05:17:31;;;;;;;4.82;3.05;;;;;;;28.90;42.26;96836.59;5074213;28;20048;-66
2023/07/10 05:19:58;;;;;;;5.32;2.90;;;;;;;29.18;41.61;96838.97;5074048;28;20135;-67
2023/07/10 05:22:26;;;;;;;3.47;2.55;;;;;;;29.36;42.10;96835.25;5074101;28;20475;-66
2023/07/10 05:24:53;;;;;;;5.30;2.33;;;;;;;29.49;41.11;96835.53;5074013;28;20084;-67
2023/07/10 05:27:20;;;;;;;4.10;3.03;;;;;;;29.66;40.44;96835.53;5074128;28;20048;-67
2023/07/10 05:29:48;;;;;;;4.45;2.78;;;;;;;29.78;40.08;96838.72;5073910;28;20076;-66
2023/07/10 05:32:15;;;;;;;7.85;2.97;;;;;;;30.01;40.72;96843.34;5073899;28;20126;-67
2023/07/10 05:34:44;;;;;;;3.35;2.40;;;;;;;30.17;38.51;96836.22;5073894;28;20071;-67
2023/07/10 05:37:12;;;;;;;4.30;2.45;;;;;;;30.34;40.14;96837.00;5073747;28;20045;-67
2023/07/10 05:39:41;;;;;;;5.82;2.63;;;;;;;30.52;38.79;96842.09;5073669;28;20505;-67
2023/07/10 05:42:09;;;;;;;5.22;2.88;;;;;;;30.79;39.48;96842.59;5073783;28;20048;-67
2023/07/10 05:44:37;;;;;;;3.35;2.40;;;;;;;31.00;37.03;96847.34;5073714;28;20080;-67
2023/07/10 05:47:05;;;;;;;2.83;2.55;;;;;;;31.04;39.01;96845.13;5073489;28;20045;-67
2023/07/10 05:49:32;;;;;;;5.53;2.60;;;;;;;31.20;35.74;96846.00;5073632;28;20410;-67
2023/07/10 05:52:01;;;;;;;4.43;2.30;;;;;;;31.16;36.64;96845.53;5073490;28;20406;-67
2023/07/10 05:54:29;;;;;;;5.82;2.33;;;;;;;30.87;35.15;96839.88;5073625;28;20052;-67
2023/07/10 05:56:56;;;;;;;6.00;2.50;;;;;;;30.49;35.61;96850.56;5073501;28;20092;-67
2023/07/10 05:59:23;;;;;;;2.97;2.25;;;;;;;30.35;35.06;96844.06;5072960;28;20128;-67
2023/07/10 06:01:50;;;;;;;4.10;2.75;;;;;;;30.23;33.92;96841.75;5073476;28;20405;-67
2023/07/10 06:04:18;;;;;;;4.55;2.40;;;;;;;30.17;36.26;96845.16;5073273;28;20083;-67
2023/07/10 06:06:45;;;;;;;4.35;2.58;;;;;;;30.03;37.41;96844.00;5073333;28;20040;-67
2023/07/10 06:09:15;;;;;;;2.88;2.58;;;;;;;29.87;36.43;96844.91;5073228;28;20483;-67
2023/07/10 06:11:42;;;;;;;3.10;2.67;;;;;;;30.00;38.96;96841.66;5073362;28;20426;-67
2023/07/10 06:14:09;;;;;;;3.17;2.40;;;;;;;29.71;36.84;96833.16;5073171;28;20051;-67
2023/07/10 06:16:37;;;;;;;5.80;2.63;;;;;;;29.83;37.97;96841.69;5073149;28;20052;-67
2023/07/10 06:19:05;;;;;;;6.30;2.63;;;;;;;29.89;37.21;96841.00;5073142;28;20124;-67
2023/07/10 06:21:32;;;;;;;3.65;2.38;;;;;;;30.08;39.02;96846.16;5073091;28;20072;-67
2023/07/10 06:23:59;;;;;;;4.30;2.42;;;;;;;29.95;37.77;96836.78;5073191;28;20083;-67
2023/07/10 06:26:28;;;;;;;7.70;2.60;;;;;;;29.86;36.85;96838.66;5073293;28;20091;-67
2023/07/10 06:28:56;;;;;;;6.40;3.10;;;;;;;29.93;36.93;96830.75;5073117;28;20044;-67
2023/07/10 06:31:23;;;;;;;4.82;2.72;;;;;;;30.25;39.39;96825.41;5073110;28;20120;-67
2023/07/10 06:33:51;;;;;;;5.28;2.53;;;;;;;30.77;38.78;96821.22;5073176;28;20045;-67
2023/07/10 06:36:18;;;;;;;5.25;2.80;;;;;;;31.15;38.27;96830.34;5072955;28;20508;-67
2023/07/10 06:38:45;;;;;;;4.75;2.65;;;;;;;31.49;37.33;96831.75;5072914;28;20075;-67
2023/07/10 06:41:13;;;;;;;3.78;2.60;;;;;;;31.74;35.69;96819.81;5072962;28;20048;-67
2023/07/10 06:43:42;;;;;;;4.60;2.60;;;;;;;32.18;34.74;96815.44;5072997;28;20144;-67
2023/07/10 06:46:09;;;;;;;4.68;2.65;;;;;;;32.37;33.92;96813.13;5072620;28;20048;-67
2023/07/10 06:48:36;;;;;;;5.18;2.55;;;;;;;32.73;35.11;96816.84;5072869;28;20045;-67
2023/07/10 06:51:04;;;;;;;5.35;2.30;;;;;;;33.07;34.36;96823.44;5072934;28;20052;-67
2023/07/10 06:53:31;;;;;;;3.20;2.47;;;;;;;33.39;33.39;96823.06;5072971;28;20048;-67
2023/07/10 06:56:01;;;;;;;3.05;2.58;;;;;;;33.61;32.11;96832.00;5072831;28;20140;-67
2023/07/10 06:58:28;;;;;;;3.50;2.78;;;;;;;33.84;32.40;96828.16;5072739;28;20402;-67
2023/07/10 07:00:57;;;;;;;3.58;2.75;;;;;;;34.08;31.39;96834.13;5072788;28;20132;-67
2023/07/10 07:03:24;;;;;;;6.35;2.97;;;;;;;34.13;31.25;96839.78;5072786;28;20102;-68
2023/07/10 07:05:51;;;;;;;3.08;2.55;;;;;;;34.24;31.70;96835.66;5072731;28;20048;-67
2023/07/10 07:08:19;;;;;;;7.78;2.80;;;;;;;34.31;31.46;96835.69;5072659;28;20088;-67
2023/07/10 07:10:47;;;;;;;3.33;2.80;;;;;;;34.58;31.53;96841.19;5073493;28;20048;-68
2023/07/10 07:13:14;;;;;;;2.97;2.60;;;;;;;34.77;30.03;96853.19;5076610;28;20486;-67
2023/07/10 07:15:41;;;;;;;4.25;2.38;;;;;;;34.61;30.43;96842.69;5076548;28;20109;-67
2023/07/10 07:18:09;;;;;;;4.55;3.28;;;;;;;34.72;30.48;96839.38;5076384;28;20076;-67
2023/07/10 07:20:36;;;;;;;4.55;3.25;;;;;;;34.76;29.71;96845.25;5076461;28;20078;-67
2023/07/10 07:23:03;;;;;;;3.65;2.90;;;;;;;34.37;29.44;96843.00;5076606;28;20106;-67
2023/07/10 07:25:31;;;;;;;6.50;2.80;;;;;;;33.89;29.34;96838.41;5076261;28;20478;-67
2023/07/10 07:28:03;;;;;;;5.43;2.80;;;;;;;33.39;29.33;96839.31;5076293;28;20083;-67
2023/07/10 07:30:30;;;;;;;3.13;2.72;;;;;;;33.17;31.10;96833.09;5076269;28;20558;-67
2023/07/10 07:32:57;;;;;;;5.07;2.80;;;;;;;33.45;31.39;96829.56;5076283;28;20122;-67
2023/07/10 07:35:26;;;;;;;6.95;3.03;;;;;;;33.30;30.14;96832.38;5076265;28;20413;-67
2023/07/10 07:37:54;;;;;;;3.17;2.85;;;;;;;33.37;29.60;96822.41;5076172;28;20051;-67
2023/07/10 07:40:21;;;;;;;3.35;2.50;;;;;;;33.05;29.19;96817.41;5076063;28;20478;-67
2023/07/10 07:42:48;;;;;;;4.40;2.47;;;;;;;33.08;30.60;96818.88;5075986;28;20076;-67
2023/07/10 07:45:16;;;;;;;2.60;2.40;;;;;;;33.29;28.50;96820.72;5075929;28;20137;-67
2023/07/10 07:47:43;;;;;;;2.85;2.40;;;;;;;33.19;31.13;96822.94;5075643;28;20048;-67
2023/07/10 07:50:11;;;;;;;3.80;2.38;;;;;;;33.34;27.90;96814.66;5076036;28;20098;-67
2023/07/10 07:52:40;;;;;;;4.05;2.40;;;;;;;33.45;29.68;96821.44;5075880;28;20045;-67
2023/07/10 07:55:08;;;;;;;2.97;2.28;;;;;;;33.85;29.02;96815.44;5075927;28;20056;-68
2023/07/10 07:57:36;;;;;;;5.15;2.50;;;;;;;34.15;26.77;96824.16;5075849;28;20498;-67
2023/07/10 08:00:04;;;;;;;3.03;2.47;;;;;;;34.31;29.11;96816.69;5075799;28;20049;-67
2023/07/10 08:02:31;;;;;;;2.55;2.35;;;;;;;34.39;27.25;96818.38;5075617;28;20052;-67
2023/07/10 08:05:00;;;;;;;5.60;2.38;;;;;;;34.50;26.95;96817.81;5075666;28;20055;-68
2023/07/10 08:07:27;;;;;;;2.42;2.13;;;;;;;33.95;28.20;96815.88;5075704;28;20048;-68
2023/07/10 08:09:58;;;;;;;2.97;2.33;;;;;;;33.94;27.66;96816.94;5075562;28;20044;-68
2023/07/10 08:12:25;;;;;;;5.95;2.20;;;;;;;34.17;27.52;96813.09;5075504;28;20049;-68
2023/07/10 08:14:52;;;;;;;2.90;2.22;;;;;;;34.08;28.06;96814.28;5075404;28;20060;-68
2023/07/10 08:17:19;;;;;;;5.78;2.60;;;;;;;33.87;27.77;96810.66;5075382;28;20045;-68
2023/07/10 08:19:47;;;;;;;8.02;2.67;;;;;;;33.98;29.40;96812.78;5075367;28;20080;-67
2023/07/10 08:22:14;;;;;;;3.47;2.60;;;;;;;33.91;29.20;96801.06;5074852;28;20404;-67
2023/07/10 08:24:41;;;;;;;3.90;2.63;;;;;;;34.13;28.04;96799.09;5075368;28;20050;-68
2023/07/10 08:27:09;;;;;;;3.47;2.47;;;;;;;34.24;27.01;96800.41;5075103;28;20518;-68
2023/07/10 08:29:36;;;;;;;3.45;2.58;;;;;;;34.41;27.48;96800.03;5075200;28;20124;-68
2023/07/10 08:32:04;;;;;;;4.90;2.33;;;;;;;34.47;26.63;96785.66;5075146;28;20048;-67
2023/07/10 08:34:34;;;;;;;2.53;2.33;;;;;;;34.21;28.00;96789.94;5075084;28;20044;-68
2023/07/10 08:37:02;;;;;;;4.72;2.28;;;;;;;33.85;26.73;96788.31;5075039;28;20045;-67
2023/07/10 08:39:29;;;;;;;5.55;2.40;;;;;;;33.56;27.78;96793.78;5075068;28;20044;-67
2023/07/10 08:41:59;;;;;;;3.38;2.45;;;;;;;33.76;29.11;96793.06;5075005;28;20045;-67
2023/07/10 08:44:32;;;;;;;;;;;;;;;33.99;27.84;96794.63;5075334;28;20057;-67
2023/07/10 08:47:04;;;;;;;3.40;2.28;;;;;;;33.86;27.56;96781.88;5074483;28;20392;-67
2023/07/10 08:49:39;;;;;;;3.30;2.53;;;;;;;34.06;29.03;96781.09;5074778;28;20044;-67
2023/07/10 08:52:09;;;;;;;3.58;2.35;;;;;;;34.20;28.03;96784.72;5074754;28;20056;-67
2023/07/10 08:54:36;;;;;;;2.50;2.30;;;;;;;34.12;26.34;96780.28;5074654;28;20127;-67
2023/07/10 08:57:16;;;;;;;5.05;2.10;;;;;;;34.13;27.24;96780.09;5074678;28;20051;-67
2023/07/10 08:59:51;;;;;;;4.10;2.08;;;;;;;34.31;27.51;96780.59;5074674;28;20478;-67
2023/07/10 09:02:34;;;;;;;2.30;2.10;;;;;;;34.08;27.87;96777.16;5074472;28;20127;-67
2023/07/10 09:05:05;;;;;;;4.22;2.30;;;;;;;33.99;28.82;96779.22;5074395;28;20055;-68
2023/07/10 09:07:38;;;;;;;4.53;2.20;;;;;;;34.07;28.53;96774.66;5074486;28;20056;-68
2023/07/10 09:10:09;;;;;;;3.90;2.40;;;;;;;33.87;27.80;96781.66;5074384;28;20053;-67
2023/07/10 09:12:40;;;;;;;2.28;1.80;;;;;;;33.86;27.23;96774.56;5074301;28;20048;-67
2023/07/10 09:15:13;;;;;;;3.33;2.50;;;;;;;33.98;27.16;96774.81;5074290;28;20049;-67
2023/07/10 09:17:54;;;;;;;3.10;2.55;;;;;;;33.66;29.59;96769.03;5074255;28;20131;-67
2023/07/10 09:20:24;;;;;;;4.25;2.25;;;;;;;33.42;29.76;96779.31;5074196;28;20407;-67
2023/07/10 09:22:54;;;;;;;3.27;2.30;;;;;;;33.45;28.98;96773.50;5074254;28;20481;-67
2023/07/10 09:25:22;;;;;;;2.78;2.25;;;;;;;33.70;27.88;96772.19;5074021;28;20309;-67
2023/07/10 09:27:49;;;;;;;4.25;2.10;;;;;;;33.63;28.73;96769.44;5074185;28;20486;-67
2023/07/10 09:30:28;;;;;;;3.03;2.72;;;;;;;33.67;30.24;96778.03;5074132;28;20075;-67
2023/07/10 09:33:01;;;;;;;3.45;2.58;;;;;;;33.66;30.84;96779.88;5073669;28;20067;-67
2023/07/10 09:35:29;;;;;;;4.85;2.40;;;;;;;33.39;30.76;96775.13;5073511;28;20137;-67
2023/07/10 09:37:56;;;;;;;5.05;2.42;;;;;;;33.33;29.84;96777.78;5073807;28;20045;-67
2023/07/10 09:40:37;;;;;;;2.78;2.20;;;;;;;33.36;28.79;96772.81;5073800;28;20075;-67
2023/07/10 09:43:05;;;;;;;5.57;2.60;;;;;;;33.26;29.76;96780.47;5073678;28;20490;-67
2023/07/10 09:45:37;;;;;;;2.85;2.50;;;;;;;33.08;28.40;96770.94;5073647;28;20048;-67
2023/07/10 09:48:13;;;;;;;7.60;3.08;;;;;;;33.04;29.30;96772.38;5073420;28;20048;-67
2023/07/10 09:50:40;;;;;;;6.60;2.67;;;;;;;32.94;31.51;96767.28;5073643;28;20131;-67
2023/07/10 09:53:24;;;;;;;2.75;2.17;;;;;;;32.75;28.02;96756.06;5073590;28;20577;-67
2023/07/10 09:55:52;;;;;;;2.47;2.28;;;;;;;32.63;29.65;96763.88;5073530;28;20040;-67
2023/07/10 09:58:19;;;;;;;2.78;1.95;;;;;;;32.60;28.92;96768.84;5073597;28;20049;-67
2023/07/10 10:00:48;;;;;;;3.60;2.45;;;;;;;32.51;31.61;96763.56;5073421;28;20055;-67
2023/07/10 10:03:20;;;;;;;2.38;2.17;;;;;;;32.56;31.02;96757.56;5073469;28;20048;-67
2023/07/10 10:05:53;;;;;;;2.20;2.00;;;;;;;32.49;29.23;96754.81;5073312;28;20044;-68
2023/07/10 10:08:23;;;;;;;2.42;2.20;;;;;;;32.40;29.83;96761.34;5073470;28;20047;-67
2023/07/10 10:11:02;;;;;;;3.28;2.00;;;;;;;32.33;28.71;96768.56;5073384;28;20044;-67
2023/07/10 10:13:31;;;;;;;4.75;1.90;;;;;;;32.43;28.34;96760.97;5073213;28;20080;-67
2023/07/10 10:16:06;;;;;;;3.08;1.90;;;;;;;32.60;29.72;96753.44;5073242;28;20407;-67
2023/07/10 10:18:41;;;;;;;5.07;2.00;;;;;;;32.62;29.99;96743.25;5073159;28;20048;-67
2023/07/10 10:21:12;;;;;;;2.45;2.15;;;;;;;32.66;29.10;96754.56;5073214;28;20048;-67
2023/07/10 10:23:42;;;;;;;3.10;2.20;;;;;;;32.97;28.44;96749.78;5073127;28;20127;-67
2023/07/10 10:26:28;;;;;;;2.28;1.88;;;;;;;33.32;27.93;96754.44;5073108;28;20048;-67
2023/07/10 10:29:13;;;;;;;3.15;2.00;;;;;;;33.28;28.95;96751.28;5073162;28;20087;-67
2023/07/10 10:31:50;;;;;;;4.05;2.08;;;;;;;33.28;26.13;96751.28;5073056;28;20434;-67
2023/07/10 10:34:29;;;;;;;4.00;2.00;;;;;;;32.99;28.35;96745.84;5073070;28;20056;-67
2023/07/10 10:37:11;;;;;;;10.15;2.15;;;;;;;32.20;30.28;96737.63;5073261;28;20041;-67
2023/07/10 10:39:40;;;;;;;5.43;1.85;;;;;;;31.77;30.33;96744.59;5072990;28;20127;-67
2023/07/10 10:42:14;;;;;;;3.30;2.50;;;;;;;31.63;31.63;96743.59;5073066;28;20080;-67
2023/07/10 10:44:48;;;;;;;5.05;2.30;;;;;;;31.40;30.17;96732.91;5073630;28;20110;-67
2023/07/10 10:47:36;;;;;;;2.53;1.92;;;;;;;31.29;30.34;96731.47;5076717;28;20477;-67
2023/07/10 10:50:35;;;;;;;3.22;2.05;;;;;;;31.11;28.72;96721.00;5077032;28;20049;-67
2023/07/10 10:53:22;;;;;;;2.90;2.25;;;;;;;31.30;30.58;96727.72;5077080;28;20441;-67
2023/07/10 10:55:59;;;;;;;2.05;1.85;;;;;;;31.50;29.52;96721.78;5076968;28;20040;-67
2023/07/10 10:58:45;;;;;;;3.10;2.38;;;;;;;31.62;30.70;96719.44;5076988;28;20048;-67
2023/07/10 11:01:26;;;;;;;2.05;1.85;;;;;;;31.78;29.47;96721.09;5076947;28;20486;-67
2023/07/10 11:03:58;;;;;;;2.38;2.17;;;;;;;31.67;30.43;96732.41;5076817;28;20147;-67
2023/07/10 11:06:57;;;;;;;2.35;1.98;;;;;;;31.22;29.33;96728.69;5076635;28;20079;-68
2023/07/10 11:09:28;;;;;;;3.75;2.17;;;;;;;31.22;29.26;96717.03;5056401;28;20044;-67
2023/07/10 11:11:56;;;;;;;3.17;2.25;;;;;;;31.37;30.18;96726.00;5076627;28;20044;-67
2023/07/10 11:14:23;;;;;;;2.00;1.90;;;;;;;31.55;29.71;96726.63;5076578;28;20048;-67
2023/07/10 11:16:50;;;;;;;3.47;1.95;;;;;;;31.71;28.22;96712.91;5076575;28;20048;-67
2023/07/10 11:19:28;;;;;;;6.65;2.22;;;;;;;31.82;29.09;96710.75;5076520;28;20490;-67
2023/07/10 11:21:54;;;;;;;3.15;2.08;;;;;;;31.86;30.12;96717.44;5076523;28;20106;-67
2023/07/10 11:24:35;;;;;;;2.67;2.28;;;;;;;31.70;30.97;96727.47;5076385;28;20188;-67
2023/07/10 11:27:09;;;;;;;;;;;;;;;31.28;30.31;96711.69;5076733;28;20049;-68
2023/07/10 11:29:40;;;;;;;6.50;2.28;;;;;;;31.03;30.48;96705.72;5076304;28;19920;-68
2023/07/10 11:32:15;;;;;;;2.83;1.92;;;;;;;30.76;30.14;96705.34;5076327;28;20452;-67
2023/07/10 11:34:54;;;;;;;2.00;1.90;;;;;;;30.61;30.17;96695.31;5076172;28;20139;-67
2023/07/10 11:38:09;;;;;;;2.88;1.95;;;;;;;30.44;30.14;96693.78;5076113;28;20056;-67
2023/07/10 11:40:51;;;;;;;2.25;2.05;;;;;;;30.35;30.88;96698.41;5076087;28;20103;-67
2023/07/10 11:43:48;;;;;;;2.03;1.83;;;;;;;30.27;32.19;96710.06;5076020;28;20070;-67
2023/07/10 11:46:22;;;;;;;2.38;1.80;;;;;;;30.45;30.61;96701.69;5054047;28;20036;-67
2023/07/10 11:49:00;;;;;;;2.08;1.88;;;;;;;30.66;30.99;96692.06;5075971;28;20475;-67